sensor_id;sensor_type;location;lat;lon;timestamp;pressure;altitude;pressure_sealevel;temperature;humidity
48622;BME280;34421;48.944;9.460;2023-07-13T00:01:49;98420.84;;;20.96;61.35
48622;BME280;34421;48.944;9.460;2023-07-13T00:04:17;98418.41;;;20.99;59.80
48622;BME280;34421;48.944;9.460;2023-07-13T00:06:43;98415.44;;;21.01;59.26
48622;BME280;34421;48.944;9.460;2023-07-13T00:09:16;98408.66;;;20.98;59.19
48622;BME280;34421;48.944;9.460;2023-07-13T00:11:49;98414.34;;;20.97;58.45
48622;BME280;34421;48.944;9.460;2023-07-13T00:14:14;98412.50;;;20.92;58.57
48622;BME280;34421;48.944;9.460;2023-07-13T00:16:42;98420.06;;;20.90;58.58
48622;BME280;34421;48.944;9.460;2023-07-13T00:19:11;98415.78;;;20.84;58.30
48622;BME280;34421;48.944;9.460;2023-07-13T00:21:38;98406.84;;;20.83;58.08
48622;BME280;34421;48.944;9.460;2023-07-13T00:24:10;98408.75;;;20.83;58.23
48622;BME280;34421;48.944;9.460;2023-07-13T00:26:38;98415.53;;;20.75;57.87
48622;BME280;34421;48.944;9.460;2023-07-13T00:29:10;98417.50;;;20.64;57.96
48622;BME280;34421;48.944;9.460;2023-07-13T00:31:35;98420.75;;;20.61;58.43
48622;BME280;34421;48.944;9.460;2023-07-13T00:34:01;98416.72;;;20.59;57.94
48622;BME280;34421;48.944;9.460;2023-07-13T00:36:26;98415.94;;;20.53;58.71
48622;BME280;34421;48.944;9.460;2023-07-13T00:38:53;98415.63;;;20.49;58.32
48622;BME280;34421;48.944;9.460;2023-07-13T00:41:21;98414.28;;;20.47;58.94
48622;BME280;34421;48.944;9.460;2023-07-13T00:43:48;98415.09;;;20.42;58.88
48622;BME280;34421;48.944;9.460;2023-07-13T00:46:19;98417.81;;;20.37;59.05
48622;BME280;34421;48.944;9.460;2023-07-13T00:48:46;98422.72;;;20.25;58.82
48622;BME280;34421;48.944;9.460;2023-07-13T00:51:13;98427.88;;;20.16;59.89
48622;BME280;34421;48.944;9.460;2023-07-13T00:53:41;98432.78;;;20.09;59.26
48622;BME280;34421;48.944;9.460;2023-07-13T00:56:09;98423.56;;;20.10;59.57
48622;BME280;34421;48.944;9.460;2023-07-13T00:58:35;98429.81;;;20.00;60.31
48622;BME280;34421;48.944;9.460;2023-07-13T01:01:00;98428.47;;;19.98;60.99
48622;BME280;34421;48.944;9.460;2023-07-13T01:03:26;98440.09;;;19.88;60.76
48622;BME280;34421;48.944;9.460;2023-07-13T01:05:59;98445.78;;;19.71;59.86
48622;BME280;34421;48.944;9.460;2023-07-13T01:08:37;98450.06;;;19.62;60.38
48622;BME280;34421;48.944;9.460;2023-07-13T01:11:03;98452.22;;;19.60;60.03
48622;BME280;34421;48.944;9.460;2023-07-13T01:13:28;98455.47;;;19.62;59.29
48622;BME280;34421;48.944;9.460;2023-07-13T01:15:57;98450.88;;;19.63;59.80
48622;BME280;34421;48.944;9.460;2023-07-13T01:18:27;98449.56;;;19.65;60.57
48622;BME280;34421;48.944;9.460;2023-07-13T01:20:57;98451.94;;;19.56;60.54
48622;BME280;34421;48.944;9.460;2023-07-13T01:23:23;98448.97;;;19.48;61.29
48622;BME280;34421;48.944;9.460;2023-07-13T01:25:53;98444.63;;;19.42;61.77
48622;BME280;34421;48.944;9.460;2023-07-13T01:28:19;98453.53;;;19.27;62.05
48622;BME280;34421;48.944;9.460;2023-07-13T01:30:46;98441.91;;;19.16;62.53
48622;BME280;34421;48.944;9.460;2023-07-13T01:33:16;98452.16;;;19.24;62.24
48622;BME280;34421;48.944;9.460;2023-07-13T01:35:45;98460.28;;;19.19;62.20
48622;BME280;34421;48.944;9.460;2023-07-13T01:38:13;98455.38;;;19.06;62.26
48622;BME280;34421;48.944;9.460;2023-07-13T01:40:38;98456.19;;;19.01;62.47
48622;BME280;34421;48.944;9.460;2023-07-13T01:43:04;98457.25;;;18.95;63.35
48622;BME280;34421;48.944;9.460;2023-07-13T01:45:32;98452.09;;;18.94;62.90
48622;BME280;34421;48.944;9.460;2023-07-13T01:48:00;98450.72;;;18.81;63.50
48622;BME280;34421;48.944;9.460;2023-07-13T01:50:26;98454.16;;;18.71;63.93
48622;BME280;34421;48.944;9.460;2023-07-13T01:52:52;98447.63;;;18.62;64.36
48622;BME280;34421;48.944;9.460;2023-07-13T01:55:19;98457.59;;;18.56;64.13
48622;BME280;34421;48.944;9.460;2023-07-13T01:57:46;98459.22;;;18.57;64.23
48622;BME280;34421;48.944;9.460;2023-07-13T02:00:14;98461.31;;;18.45;64.88
48622;BME280;34421;48.944;9.460;2023-07-13T02:02:40;98470.78;;;18.53;64.42
48622;BME280;34421;48.944;9.460;2023-07-13T02:05:08;98463.44;;;18.43;64.23
48622;BME280;34421;48.944;9.460;2023-07-13T02:07:33;98469.09;;;18.36;64.76
48622;BME280;34421;48.944;9.460;2023-07-13T02:09:58;98471.44;;;18.28;64.97
48622;BME280;34421;48.944;9.460;2023-07-13T02:12:26;98467.88;;;18.17;65.43
48622;BME280;34421;48.944;9.460;2023-07-13T02:14:52;98471.59;;;18.06;65.94
48622;BME280;34421;48.944;9.460;2023-07-13T02:17:17;98484.03;;;18.12;65.89
48622;BME280;34421;48.944;9.460;2023-07-13T02:19:42;98482.56;;;17.99;66.39
48622;BME280;34421;48.944;9.460;2023-07-13T02:22:08;98482.28;;;17.95;66.74
48622;BME280;34421;48.944;9.460;2023-07-13T02:24:33;98475.78;;;17.91;66.21
48622;BME280;34421;48.944;9.460;2023-07-13T02:27:00;98477.88;;;17.84;66.82
48622;BME280;34421;48.944;9.460;2023-07-13T02:29:28;98476.81;;;17.85;66.78
48622;BME280;34421;48.944;9.460;2023-07-13T02:31:55;98474.06;;;17.80;67.35
48622;BME280;34421;48.944;9.460;2023-07-13T02:34:21;98481.69;;;17.88;66.67
48622;BME280;34421;48.944;9.460;2023-07-13T02:36:46;98482.72;;;17.82;67.05
48622;BME280;34421;48.944;9.460;2023-07-13T02:39:13;98477.19;;;17.67;67.38
48622;BME280;34421;48.944;9.460;2023-07-13T02:41:38;98478.28;;;17.71;67.16
48622;BME280;34421;48.944;9.460;2023-07-13T02:44:03;98476.09;;;17.68;67.78
48622;BME280;34421;48.944;9.460;2023-07-13T02:46:33;98482.00;;;17.65;67.71
48622;BME280;34421;48.944;9.460;2023-07-13T02:48:59;98478.75;;;17.63;67.69
48622;BME280;34421;48.944;9.460;2023-07-13T02:51:27;98482.41;;;17.51;67.84
48622;BME280;34421;48.944;9.460;2023-07-13T02:53:53;98483.53;;;17.56;67.51
48622;BME280;34421;48.944;9.460;2023-07-13T02:56:22;98488.81;;;17.45;68.22
48622;BME280;34421;48.944;9.460;2023-07-13T02:58:48;98494.19;;;17.45;67.95
48622;BME280;34421;48.944;9.460;2023-07-13T03:01:14;98495.22;;;17.39;68.11
48622;BME280;34421;48.944;9.460;2023-07-13T03:03:44;98498.47;;;17.41;67.92
48622;BME280;34421;48.944;9.460;2023-07-13T03:06:15;98498.97;;;17.38;68.12
48622;BME280;34421;48.944;9.460;2023-07-13T03:08:48;98499.41;;;17.30;68.69
48622;BME280;34421;48.944;9.460;2023-07-13T03:11:17;98496.06;;;17.18;68.09
48622;BME280;34421;48.944;9.460;2023-07-13T03:13:43;98499.00;;;17.16;68.96
48622;BME280;34421;48.944;9.460;2023-07-13T03:16:09;98496.13;;;17.23;68.96
48622;BME280;34421;48.944;9.460;2023-07-13T03:18:36;98497.38;;;17.15;68.78
48622;BME280;34421;48.944;9.460;2023-07-13T03:21:01;98509.44;;;17.13;68.80
48622;BME280;34421;48.944;9.460;2023-07-13T03:23:29;98506.75;;;17.13;69.05
48622;BME280;34421;48.944;9.460;2023-07-13T03:26:18;98505.66;;;17.08;69.20
48622;BME280;34421;48.944;9.460;2023-07-13T03:28:46;98515.84;;;17.06;69.15
48622;BME280;34421;48.944;9.460;2023-07-13T03:31:15;98516.41;;;17.08;68.76
48622;BME280;34421;48.944;9.460;2023-07-13T03:33:44;98515.28;;;17.04;69.15
48622;BME280;34421;48.944;9.460;2023-07-13T03:36:15;98515.91;;;17.12;68.83
48622;BME280;34421;48.944;9.460;2023-07-13T03:38:51;98521.03;;;17.13;69.20
48622;BME280;34421;48.944;9.460;2023-07-13T03:41:17;98524.84;;;17.17;68.97
48622;BME280;34421;48.944;9.460;2023-07-13T03:43:43;98526.25;;;17.25;69.18
48622;BME280;34421;48.944;9.460;2023-07-13T03:46:09;98531.50;;;17.37;68.67
48622;BME280;34421;48.944;9.460;2023-07-13T03:48:37;98537.75;;;17.42;68.34
48622;BME280;34421;48.944;9.460;2023-07-13T03:51:10;98541.59;;;17.46;68.06
48622;BME280;34421;48.944;9.460;2023-07-13T03:53:41;98542.13;;;17.48;68.57
48622;BME280;34421;48.944;9.460;2023-07-13T03:56:08;98547.56;;;17.53;68.14
48622;BME280;34421;48.944;9.460;2023-07-13T03:58:38;98552.50;;;17.62;68.30
48622;BME280;34421;48.944;9.460;2023-07-13T04:01:09;98554.19;;;17.68;68.63
48622;BME280;34421;48.944;9.460;2023-07-13T04:03:37;98557.00;;;17.78;68.18
48622;BME280;34421;48.944;9.460;2023-07-13T04:06:04;98561.63;;;17.83;67.89
48622;BME280;34421;48.944;9.460;2023-07-13T04:08:35;98560.84;;;17.87;67.88
48622;BME280;34421;48.944;9.460;2023-07-13T04:11:22;98556.59;;;17.91;67.85
48622;BME280;34421;48.944;9.460;2023-07-13T04:13:48;98551.50;;;17.95;67.81
48622;BME280;34421;48.944;9.460;2023-07-13T04:16:18;98552.94;;;18.03;67.91
48622;BME280;34421;48.944;9.460;2023-07-13T04:18:45;98555.34;;;18.04;67.23
48622;BME280;34421;48.944;9.460;2023-07-13T04:21:10;98547.50;;;17.97;67.22
48622;BME280;34421;48.944;9.460;2023-07-13T04:23:41;98550.69;;;17.94;67.30
48622;BME280;34421;48.944;9.460;2023-07-13T04:26:09;98557.19;;;17.98;67.13
48622;BME280;34421;48.944;9.460;2023-07-13T04:28:34;98553.38;;;17.94;66.69
48622;BME280;34421;48.944;9.460;2023-07-13T04:31:20;98559.31;;;17.96;67.16
48622;BME280;34421;48.944;9.460;2023-07-13T04:33:48;98565.84;;;18.01;66.82
48622;BME280;34421;48.944;9.460;2023-07-13T04:36:15;98570.59;;;17.93;67.19
48622;BME280;34421;48.944;9.460;2023-07-13T04:38:43;98562.50;;;17.93;66.95
48622;BME280;34421;48.944;9.460;2023-07-13T04:41:11;98570.13;;;18.02;66.85
48622;BME280;34421;48.944;9.460;2023-07-13T04:43:40;98565.91;;;18.11;66.66
48622;BME280;34421;48.944;9.460;2023-07-13T04:46:23;98570.66;;;18.31;66.18
48622;BME280;34421;48.944;9.460;2023-07-13T04:49:09;98570.25;;;18.49;66.23
48622;BME280;34421;48.944;9.460;2023-07-13T04:51:36;98571.13;;;18.60;65.73
48622;BME280;34421;48.944;9.460;2023-07-13T04:54:12;98563.88;;;18.65;65.45
48622;BME280;34421;48.944;9.460;2023-07-13T04:56:39;98564.41;;;18.67;65.33
48622;BME280;34421;48.944;9.460;2023-07-13T04:59:22;98573.06;;;18.70;65.52
48622;BME280;34421;48.944;9.460;2023-07-13T05:01:47;98569.38;;;18.76;65.51
48622;BME280;34421;48.944;9.460;2023-07-13T05:04:16;98571.28;;;18.80;65.58
48622;BME280;34421;48.944;9.460;2023-07-13T05:06:44;98574.00;;;18.80;65.27
48622;BME280;34421;48.944;9.460;2023-07-13T05:09:12;98574.00;;;18.80;65.78
48622;BME280;34421;48.944;9.460;2023-07-13T05:11:44;98572.94;;;18.86;66.08
48622;BME280;34421;48.944;9.460;2023-07-13T05:14:16;98573.53;;;18.99;65.58
48622;BME280;34421;48.944;9.460;2023-07-13T05:16:42;98572.00;;;19.13;65.65
48622;BME280;34421;48.944;9.460;2023-07-13T05:19:08;98573.13;;;19.32;65.11
48622;BME280;34421;48.944;9.460;2023-07-13T05:21:33;98584.56;;;19.55;65.12
48622;BME280;34421;48.944;9.460;2023-07-13T05:23:58;98582.75;;;19.81;64.77
48622;BME280;34421;48.944;9.460;2023-07-13T05:26:24;98580.34;;;20.10;63.97
48622;BME280;34421;48.944;9.460;2023-07-13T05:28:49;98580.88;;;20.27;63.63
48622;BME280;34421;48.944;9.460;2023-07-13T05:31:14;98583.03;;;20.46;63.54
48622;BME280;34421;48.944;9.460;2023-07-13T05:33:41;98578.16;;;20.63;62.46
48622;BME280;34421;48.944;9.460;2023-07-13T05:36:09;98580.84;;;20.79;62.15
48622;BME280;34421;48.944;9.460;2023-07-13T05:38:39;98577.84;;;20.90;61.43
48622;BME280;34421;48.944;9.460;2023-07-13T05:41:05;98583.19;;;21.11;60.69
48622;BME280;34421;48.944;9.460;2023-07-13T05:43:30;98580.16;;;21.23;59.81
48622;BME280;34421;48.944;9.460;2023-07-13T05:45:56;98583.91;;;21.42;59.49
48622;BME280;34421;48.944;9.460;2023-07-13T05:48:22;98586.25;;;21.59;58.79
48622;BME280;34421;48.944;9.460;2023-07-13T05:50:50;98582.63;;;21.74;58.98
48622;BME280;34421;48.944;9.460;2023-07-13T05:53:18;98583.88;;;21.92;58.06
48622;BME280;34421;48.944;9.460;2023-07-13T05:55:47;98596.03;;;21.99;58.24
48622;BME280;34421;48.944;9.460;2023-07-13T05:58:16;98591.38;;;22.10;58.14
48622;BME280;34421;48.944;9.460;2023-07-13T06:00:42;98582.38;;;22.20;57.68
48622;BME280;34421;48.944;9.460;2023-07-13T06:03:07;98590.97;;;22.27;57.38
48622;BME280;34421;48.944;9.460;2023-07-13T06:05:34;98587.63;;;22.40;56.77
48622;BME280;34421;48.944;9.460;2023-07-13T06:08:00;98584.75;;;22.56;56.57
48622;BME280;34421;48.944;9.460;2023-07-13T06:10:25;98588.69;;;22.68;56.18
48622;BME280;34421;48.944;9.460;2023-07-13T06:12:50;98591.34;;;22.79;55.11
48622;BME280;34421;48.944;9.460;2023-07-13T06:15:16;98594.53;;;22.81;55.21
48622;BME280;34421;48.944;9.460;2023-07-13T06:17:42;98599.13;;;22.85;55.35
48622;BME280;34421;48.944;9.460;2023-07-13T06:20:07;98609.81;;;23.06;54.26
48622;BME280;34421;48.944;9.460;2023-07-13T06:22:33;98607.81;;;23.35;53.81
48622;BME280;34421;48.944;9.460;2023-07-13T06:24:58;98612.72;;;23.76;52.64
48622;BME280;34421;48.944;9.460;2023-07-13T06:27:24;98614.16;;;24.77;49.92
48622;BME280;34421;48.944;9.460;2023-07-13T06:29:49;98604.59;;;27.20;44.87
48622;BME280;34421;48.944;9.460;2023-07-13T06:32:14;98604.66;;;29.83;38.60
48622;BME280;34421;48.944;9.460;2023-07-13T06:34:40;98610.56;;;30.48;36.95
48622;BME280;34421;48.944;9.460;2023-07-13T06:37:05;98608.41;;;30.99;35.87
48622;BME280;34421;48.944;9.460;2023-07-13T06:39:31;98607.06;;;30.59;36.34
48622;BME280;34421;48.944;9.460;2023-07-13T06:41:57;98613.00;;;31.07;34.55
48622;BME280;34421;48.944;9.460;2023-07-13T06:44:22;98608.75;;;31.71;32.61
48622;BME280;34421;48.944;9.460;2023-07-13T06:46:48;98612.47;;;31.38;32.87
48622;BME280;34421;48.944;9.460;2023-07-13T06:49:13;98613.06;;;30.74;33.13
48622;BME280;34421;48.944;9.460;2023-07-13T06:51:38;98616.34;;;32.71;31.08
48622;BME280;34421;48.944;9.460;2023-07-13T06:54:04;98612.16;;;34.49;28.11
48622;BME280;34421;48.944;9.460;2023-07-13T06:56:29;98615.88;;;36.36;25.32
48622;BME280;34421;48.944;9.460;2023-07-13T06:58:54;98621.00;;;38.41;22.91
48622;BME280;34421;48.944;9.460;2023-07-13T07:01:21;98614.63;;;39.94;21.05
48622;BME280;34421;48.944;9.460;2023-07-13T07:03:46;98615.75;;;41.78;19.13
48622;BME280;34421;48.944;9.460;2023-07-13T07:08:38;98616.00;;;42.25;18.42
48622;BME280;34421;48.944;9.460;2023-07-13T07:11:03;98622.25;;;40.71;19.62
48622;BME280;34421;48.944;9.460;2023-07-13T07:13:28;98623.88;;;39.62;20.22
48622;BME280;34421;48.944;9.460;2023-07-13T07:15:54;98620.88;;;41.83;18.93
48622;BME280;34421;48.944;9.460;2023-07-13T07:18:20;98624.38;;;42.56;17.73
48622;BME280;34421;48.944;9.460;2023-07-13T07:20:51;98628.34;;;42.59;17.36
48622;BME280;34421;48.944;9.460;2023-07-13T07:26:01;98633.47;;;40.57;18.55
48622;BME280;34421;48.944;9.460;2023-07-13T07:28:27;98632.78;;;41.91;17.38
48622;BME280;34421;48.944;9.460;2023-07-13T07:30:57;98628.63;;;43.65;16.23
48622;BME280;34421;48.944;9.460;2023-07-13T07:33:24;98629.44;;;42.07;16.95
48622;BME280;34421;48.944;9.460;2023-07-13T07:35:51;98629.19;;;41.53;17.80
48622;BME280;34421;48.944;9.460;2023-07-13T07:38:17;98632.44;;;41.89;17.07
48622;BME280;34421;48.944;9.460;2023-07-13T07:40:42;98631.47;;;41.24;17.56
48622;BME280;34421;48.944;9.460;2023-07-13T07:43:09;98633.56;;;42.56;16.31
48622;BME280;34421;48.944;9.460;2023-07-13T07:45:41;98632.13;;;43.93;15.32
48622;BME280;34421;48.944;9.460;2023-07-13T07:48:07;98624.69;;;44.23;15.48
48622;BME280;34421;48.944;9.460;2023-07-13T07:50:34;98624.38;;;45.84;13.89
48622;BME280;34421;48.944;9.460;2023-07-13T07:52:59;98622.94;;;47.11;12.68
48622;BME280;34421;48.944;9.460;2023-07-13T07:55:27;98629.59;;;45.08;13.82
48622;BME280;34421;48.944;9.460;2023-07-13T07:57:53;98637.91;;;41.62;15.78
48622;BME280;34421;48.944;9.460;2023-07-13T08:00:19;98635.47;;;40.60;16.82
48622;BME280;34421;48.944;9.460;2023-07-13T08:02:45;98636.44;;;41.50;15.89
48622;BME280;34421;48.944;9.460;2023-07-13T08:05:10;98634.38;;;41.02;15.69
48622;BME280;34421;48.944;9.460;2023-07-13T08:07:41;98638.22;;;39.04;16.82
48622;BME280;34421;48.944;9.460;2023-07-13T08:10:08;98645.72;;;38.82;17.19
48622;BME280;34421;48.944;9.460;2023-07-13T08:12:39;98641.94;;;38.17;17.41
48622;BME280;34421;48.944;9.460;2023-07-13T08:15:05;98640.34;;;37.50;18.32
48622;BME280;34421;48.944;9.460;2023-07-13T08:17:31;98641.84;;;36.95;18.79
48622;BME280;34421;48.944;9.460;2023-07-13T08:19:56;98645.66;;;36.46;19.36
48622;BME280;34421;48.944;9.460;2023-07-13T08:22:22;98651.75;;;34.96;20.69
48622;BME280;34421;48.944;9.460;2023-07-13T08:24:47;98651.72;;;35.15;20.75
48622;BME280;34421;48.944;9.460;2023-07-13T08:27:20;98653.25;;;36.16;19.82
48622;BME280;34421;48.944;9.460;2023-07-13T08:29:47;98655.00;;;36.01;20.03
48622;BME280;34421;48.944;9.460;2023-07-13T08:32:13;98652.44;;;35.58;20.37
48622;BME280;34421;48.944;9.460;2023-07-13T08:34:39;98657.31;;;35.46;20.47
48622;BME280;34421;48.944;9.460;2023-07-13T08:37:06;98659.69;;;34.98;20.61
48622;BME280;34421;48.944;9.460;2023-07-13T08:39:32;98656.09;;;35.17;20.80
48622;BME280;34421;48.944;9.460;2023-07-13T08:42:06;98655.81;;;37.47;18.65
48622;BME280;34421;48.944;9.460;2023-07-13T08:45:03;98664.00;;;35.64;20.29
48622;BME280;34421;48.944;9.460;2023-07-13T08:47:35;98658.41;;;36.51;20.05
48622;BME280;34421;48.944;9.460;2023-07-13T08:50:03;98650.16;;;38.97;17.88
48622;BME280;34421;48.944;9.460;2023-07-13T08:52:38;98636.97;;;40.75;16.71
48622;BME280;34421;48.944;9.460;2023-07-13T08:55:17;98647.66;;;40.10;16.91
48622;BME280;34421;48.944;9.460;2023-07-13T08:57:46;98651.72;;;39.19;17.63
48622;BME280;34421;48.944;9.460;2023-07-13T09:00:13;98659.91;;;37.64;19.11
48622;BME280;34421;48.944;9.460;2023-07-13T09:02:59;98655.31;;;39.81;16.83
48622;BME280;34421;48.944;9.460;2023-07-13T09:05:30;98637.38;;;41.74;15.34
48622;BME280;34421;48.944;9.460;2023-07-13T09:16:50;98645.59;;;38.32;17.80
48622;BME280;34421;48.944;9.460;2023-07-13T09:19:23;98648.34;;;37.55;18.33
48622;BME280;34421;48.944;9.460;2023-07-13T09:21:52;98653.59;;;38.44;18.45
48622;BME280;34421;48.944;9.460;2023-07-13T09:25:43;98644.56;;;39.47;17.23
48622;BME280;34421;48.944;9.460;2023-07-13T09:27:45;98651.81;;;40.65;16.42
48622;BME280;34421;48.944;9.460;2023-07-13T09:30:20;98647.41;;;40.67;16.10
48622;BME280;34421;48.944;9.460;2023-07-13T09:32:51;98652.56;;;39.38;17.15
48622;BME280;34421;48.944;9.460;2023-07-13T09:35:25;98653.31;;;38.99;17.12
48622;BME280;34421;48.944;9.460;2023-07-13T09:38:18;98659.50;;;38.39;17.41
48622;BME280;34421;48.944;9.460;2023-07-13T09:43:34;98645.66;;;37.69;17.96
48622;BME280;34421;48.944;9.460;2023-07-13T09:45:59;98650.44;;;40.06;16.29
48622;BME280;34421;48.944;9.460;2023-07-13T09:48:25;98647.34;;;38.93;16.90
48622;BME280;34421;48.944;9.460;2023-07-13T09:50:54;98639.81;;;39.12;16.75
48622;BME280;34421;48.944;9.460;2023-07-13T09:53:21;98634.53;;;37.69;17.52
48622;BME280;34421;48.944;9.460;2023-07-13T09:55:48;98643.69;;;35.33;19.35
48622;BME280;34421;48.944;9.460;2023-07-13T09:58:22;98650.81;;;33.24;21.55
48622;BME280;34421;48.944;9.460;2023-07-13T10:01:02;98653.03;;;33.66;21.53
48622;BME280;34421;48.944;9.460;2023-07-13T10:03:35;98655.56;;;34.88;20.09
48622;BME280;34421;48.944;9.460;2023-07-13T10:06:21;98654.97;;;34.01;20.87
48622;BME280;34421;48.944;9.460;2023-07-13T10:08:49;98649.06;;;34.57;20.95
48622;BME280;34421;48.944;9.460;2023-07-13T10:11:27;98643.41;;;35.15;20.26
48622;BME280;34421;48.944;9.460;2023-07-13T10:14:01;98650.38;;;34.24;21.27
48622;BME280;34421;48.944;9.460;2023-07-13T10:16:33;98646.66;;;35.71;20.03
48622;BME280;34421;48.944;9.460;2023-07-13T10:19:02;98649.13;;;34.61;21.37
48622;BME280;34421;48.944;9.460;2023-07-13T10:21:33;98645.59;;;35.52;20.10
48622;BME280;34421;48.944;9.460;2023-07-13T10:24:23;98642.88;;;36.43;19.27
48622;BME280;34421;48.944;9.460;2023-07-13T10:27:21;98645.66;;;35.82;20.12
48622;BME280;34421;48.944;9.460;2023-07-13T10:30:09;98640.81;;;35.03;20.96
48622;BME280;34421;48.944;9.460;2023-07-13T10:32:36;98649.25;;;32.79;22.89
48622;BME280;34421;48.944;9.460;2023-07-13T10:35:03;98646.69;;;32.02;24.36
48622;BME280;34421;48.944;9.460;2023-07-13T10:37:31;98653.25;;;31.24;25.09
48622;BME280;34421;48.944;9.460;2023-07-13T10:39:59;98652.69;;;31.30;25.15
48622;BME280;34421;48.944;9.460;2023-07-13T10:42:41;98645.66;;;32.07;24.18
48622;BME280;34421;48.944;9.460;2023-07-13T10:45:17;98646.13;;;33.09;22.38
48622;BME280;34421;48.944;9.460;2023-07-13T10:47:44;98646.47;;;33.23;22.45
48622;BME280;34421;48.944;9.460;2023-07-13T10:50:22;98655.75;;;32.03;23.79
48622;BME280;34421;48.944;9.460;2023-07-13T10:52:50;98658.78;;;30.57;25.02
48622;BME280;34421;48.944;9.460;2023-07-13T10:58:41;98641.31;;;31.20;24.26
48622;BME280;34421;48.944;9.460;2023-07-13T11:01:17;98636.25;;;30.85;24.42
48622;BME280;34421;48.944;9.460;2023-07-13T11:16:46;98635.50;;;29.12;26.28
48622;BME280;34421;48.944;9.460;2023-07-13T11:24:29;98641.66;;;27.43;28.40
48622;BME280;34421;48.944;9.460;2023-07-13T11:27:37;98627.03;;;27.57;29.35
48622;BME280;34421;48.944;9.460;2023-07-13T11:32:33;98623.63;;;27.02;30.53
48622;BME280;34421;48.944;9.460;2023-07-13T11:34:59;98617.19;;;26.98;31.05
48622;BME280;34421;48.944;9.460;2023-07-13T11:37:28;98618.75;;;26.59;31.24
48622;BME280;34421;48.944;9.460;2023-07-13T11:39:58;98614.91;;;26.61;31.31
48622;BME280;34421;48.944;9.460;2023-07-13T11:42:24;98631.84;;;26.71;30.95
48622;BME280;34421;48.944;9.460;2023-07-13T11:44:52;98625.97;;;26.87;30.87
48622;BME280;34421;48.944;9.460;2023-07-13T11:47:22;98621.31;;;27.27;30.56
48622;BME280;34421;48.944;9.460;2023-07-13T11:49:50;98623.97;;;27.49;29.90
48622;BME280;34421;48.944;9.460;2023-07-13T11:52:23;98621.81;;;27.29;29.73
48622;BME280;34421;48.944;9.460;2023-07-13T11:54:54;98614.38;;;27.78;27.96
48622;BME280;34421;48.944;9.460;2023-07-13T11:57:32;98614.56;;;28.25;27.86
48622;BME280;34421;48.944;9.460;2023-07-13T12:00:03;98610.72;;;27.91;29.52
48622;BME280;34421;48.944;9.460;2023-07-13T12:02:38;98619.22;;;27.72;30.83
48622;BME280;34421;48.944;9.460;2023-07-13T12:05:05;98614.25;;;26.95;31.02
48622;BME280;34421;48.944;9.460;2023-07-13T12:07:33;98618.66;;;26.73;30.91
48622;BME280;34421;48.944;9.460;2023-07-13T12:10:27;98629.34;;;26.84;30.18
48622;BME280;34421;48.944;9.460;2023-07-13T12:13:04;98623.53;;;26.54;31.19
48622;BME280;34421;48.944;9.460;2023-07-13T12:15:40;98618.13;;;26.94;30.59
48622;BME280;34421;48.944;9.460;2023-07-13T12:18:14;98632.06;;;27.15;30.90
48622;BME280;34421;48.944;9.460;2023-07-13T12:20:40;98633.09;;;26.96;30.69
48622;BME280;34421;48.944;9.460;2023-07-13T12:23:31;98628.03;;;26.58;31.31
48622;BME280;34421;48.944;9.460;2023-07-13T12:25:57;98629.63;;;26.51;31.26
48622;BME280;34421;48.944;9.460;2023-07-13T12:28:48;98626.28;;;26.85;30.29
48622;BME280;34421;48.944;9.460;2023-07-13T12:31:34;98631.06;;;27.50;28.48
48622;BME280;34421;48.944;9.460;2023-07-13T12:34:11;98619.22;;;27.99;27.99
48622;BME280;34421;48.944;9.460;2023-07-13T12:36:41;98620.22;;;28.03;28.29
48622;BME280;34421;48.944;9.460;2023-07-13T12:41:42;98618.91;;;26.94;30.67
48622;BME280;34421;48.944;9.460;2023-07-13T12:44:16;98621.72;;;27.12;30.80
48622;BME280;34421;48.944;9.460;2023-07-13T12:46:57;98613.44;;;27.17;30.37
48622;BME280;34421;48.944;9.460;2023-07-13T12:49:25;98616.22;;;27.03;30.14
48622;BME280;34421;48.944;9.460;2023-07-13T12:51:56;98615.00;;;26.78;30.60
48622;BME280;34421;48.944;9.460;2023-07-13T12:54:23;98618.53;;;26.78;31.12
48622;BME280;34421;48.944;9.460;2023-07-13T12:56:50;98620.28;;;26.74;31.10
48622;BME280;34421;48.944;9.460;2023-07-13T12:59:21;98611.75;;;26.76;30.77
48622;BME280;34421;48.944;9.460;2023-07-13T13:01:48;98619.91;;;26.67;31.40
48622;BME280;34421;48.944;9.460;2023-07-13T13:04:18;98614.97;;;26.24;30.92
48622;BME280;34421;48.944;9.460;2023-07-13T13:06:47;98611.53;;;26.41;31.24
48622;BME280;34421;48.944;9.460;2023-07-13T13:09:14;98611.00;;;26.84;30.16
48622;BME280;34421;48.944;9.460;2023-07-13T13:11:41;98618.56;;;26.87;31.00
48622;BME280;34421;48.944;9.460;2023-07-13T13:14:06;98618.16;;;26.49;32.00
48622;BME280;34421;48.944;9.460;2023-07-13T13:16:47;98613.13;;;26.20;32.22
48622;BME280;34421;48.944;9.460;2023-07-13T13:19:20;98612.56;;;25.86;32.66
48622;BME280;34421;48.944;9.460;2023-07-13T13:21:49;98608.94;;;25.63;32.79
48622;BME280;34421;48.944;9.460;2023-07-13T13:24:21;98605.09;;;25.64;32.62
48622;BME280;34421;48.944;9.460;2023-07-13T13:26:47;98607.94;;;25.59;32.85
48622;BME280;34421;48.944;9.460;2023-07-13T13:29:16;98612.41;;;25.55;32.66
48622;BME280;34421;48.944;9.460;2023-07-13T13:31:42;98612.41;;;25.41;32.31
48622;BME280;34421;48.944;9.460;2023-07-13T13:34:10;98607.06;;;25.22;31.73
48622;BME280;34421;48.944;9.460;2023-07-13T13:36:36;98603.63;;;25.31;32.23
48622;BME280;34421;48.944;9.460;2023-07-13T13:39:01;98606.53;;;25.48;32.04
48622;BME280;34421;48.944;9.460;2023-07-13T13:41:28;98603.09;;;25.56;31.94
48622;BME280;34421;48.944;9.460;2023-07-13T13:43:54;98607.78;;;25.92;31.73
48622;BME280;34421;48.944;9.460;2023-07-13T13:46:22;98601.72;;;25.81;32.61
48622;BME280;34421;48.944;9.460;2023-07-13T13:48:50;98607.22;;;25.67;32.88
48622;BME280;34421;48.944;9.460;2023-07-13T13:51:17;98603.31;;;25.46;31.95
48622;BME280;34421;48.944;9.460;2023-07-13T13:53:44;98603.88;;;25.71;32.38
48622;BME280;34421;48.944;9.460;2023-07-13T13:56:13;98610.72;;;25.82;32.22